sensor_id;sensor_type;location;lat;lon;timestamp;pressure;altitude;pressure_sealevel;temperature;humidity
65329;BME280;51941;52.210;5.158;2024-03-25T00:01:36;100751.16;;;3.97;81.34
65329;BME280;51941;52.210;5.158;2024-03-25T00:04:02;100747.72;;;3.96;81.25
65329;BME280;51941;52.210;5.158;2024-03-25T00:06:29;100751.81;;;3.94;80.74
65329;BME280;51941;52.210;5.158;2024-03-25T00:08:59;100752.78;;;3.89;80.94
65329;BME280;51941;52.210;5.158;2024-03-25T00:11:25;100756.75;;;3.83;81.33
65329;BME280;51941;52.210;5.158;2024-03-25T00:13:51;100757.75;;;3.79;81.24
65329;BME280;51941;52.210;5.158;2024-03-25T00:16:19;100761.81;;;3.76;81.46
65329;BME280;51941;52.210;5.158;2024-03-25T00:18:45;100764.69;;;3.71;81.80
65329;BME280;51941;52.210;5.158;2024-03-25T00:21:12;100754.69;;;3.68;81.97
65329;BME280;51941;52.210;5.158;2024-03-25T00:23:37;100758.91;;;3.69;82.05
65329;BME280;51941;52.210;5.158;2024-03-25T00:26:04;100758.47;;;3.67;82.28
65329;BME280;51941;52.210;5.158;2024-03-25T00:28:30;100747.13;;;3.70;82.23
65329;BME280;51941;52.210;5.158;2024-03-25T00:30:57;100742.25;;;3.72;82.36
65329;BME280;51941;52.210;5.158;2024-03-25T00:33:24;100742.72;;;3.74;82.44
65329;BME280;51941;52.210;5.158;2024-03-25T00:35:51;100743.53;;;3.74;82.29
65329;BME280;51941;52.210;5.158;2024-03-25T00:38:18;100731.59;;;3.72;82.15
65329;BME280;51941;52.210;5.158;2024-03-25T00:40:44;100737.91;;;3.67;81.96
65329;BME280;51941;52.210;5.158;2024-03-25T00:43:10;100734.34;;;3.63;82.08
65329;BME280;51941;52.210;5.158;2024-03-25T00:45:37;100728.88;;;3.60;82.07
65329;BME280;51941;52.210;5.158;2024-03-25T00:48:04;100742.06;;;3.56;82.16
65329;BME280;51941;52.210;5.158;2024-03-25T00:50:32;100738.19;;;3.53;81.70
65329;BME280;51941;52.210;5.158;2024-03-25T00:52:58;100738.81;;;3.50;81.72
65329;BME280;51941;52.210;5.158;2024-03-25T00:55:25;100731.50;;;3.47;81.70
65329;BME280;51941;52.210;5.158;2024-03-25T00:57:50;100732.47;;;3.43;81.91
65329;BME280;51941;52.210;5.158;2024-03-25T01:00:18;100743.44;;;3.41;81.69
65329;BME280;51941;52.210;5.158;2024-03-25T01:02:44;100749.25;;;3.34;81.86
65329;BME280;51941;52.210;5.158;2024-03-25T01:05:10;100744.44;;;3.28;81.98
65329;BME280;51941;52.210;5.158;2024-03-25T01:07:38;100741.97;;;3.23;82.26
65329;BME280;51941;52.210;5.158;2024-03-25T01:10:05;100751.38;;;3.20;82.48
65329;BME280;51941;52.210;5.158;2024-03-25T01:12:32;100744.81;;;3.18;82.42
65329;BME280;51941;52.210;5.158;2024-03-25T01:14:59;100746.38;;;3.19;82.37
65329;BME280;51941;52.210;5.158;2024-03-25T01:17:24;100748.25;;;3.18;82.21
65329;BME280;51941;52.210;5.158;2024-03-25T01:19:51;100749.69;;;3.15;82.32
65329;BME280;51941;52.210;5.158;2024-03-25T01:22:17;100752.66;;;3.14;82.71
65329;BME280;51941;52.210;5.158;2024-03-25T01:24:45;100753.13;;;3.16;82.44
65329;BME280;51941;52.210;5.158;2024-03-25T01:27:11;100753.44;;;3.14;82.34
65329;BME280;51941;52.210;5.158;2024-03-25T01:29:37;100756.41;;;3.13;82.47
65329;BME280;51941;52.210;5.158;2024-03-25T01:32:04;100757.22;;;3.13;82.26
65329;BME280;51941;52.210;5.158;2024-03-25T01:34:31;100757.22;;;3.13;82.17
65329;BME280;51941;52.210;5.158;2024-03-25T01:36:57;100754.56;;;3.13;82.13
65329;BME280;51941;52.210;5.158;2024-03-25T01:39:23;100751.09;;;3.13;82.14
65329;BME280;51941;52.210;5.158;2024-03-25T01:41:51;100753.28;;;3.11;81.90
65329;BME280;51941;52.210;5.158;2024-03-25T01:44:17;100747.50;;;3.09;81.54
65329;BME280;51941;52.210;5.158;2024-03-25T01:46:43;100743.63;;;3.06;81.49
65329;BME280;51941;52.210;5.158;2024-03-25T01:49:11;100738.16;;;3.03;81.51
65329;BME280;51941;52.210;5.158;2024-03-25T01:51:37;100747.41;;;2.96;81.93
65329;BME280;51941;52.210;5.158;2024-03-25T01:54:06;100748.69;;;2.90;82.06
65329;BME280;51941;52.210;5.158;2024-03-25T01:56:33;100751.53;;;2.85;82.29
65329;BME280;51941;52.210;5.158;2024-03-25T01:59:03;100758.13;;;2.79;82.36
65329;BME280;51941;52.210;5.158;2024-03-25T02:01:29;100767.38;;;2.73;82.53
65329;BME280;51941;52.210;5.158;2024-03-25T02:03:56;100763.03;;;2.68;82.43
65329;BME280;51941;52.210;5.158;2024-03-25T02:06:24;100762.09;;;2.64;82.38
65329;BME280;51941;52.210;5.158;2024-03-25T02:08:54;100755.06;;;2.60;82.53
65329;BME280;51941;52.210;5.158;2024-03-25T02:11:22;100757.56;;;2.56;82.43
65329;BME280;51941;52.210;5.158;2024-03-25T02:13:50;100768.53;;;2.46;82.69
65329;BME280;51941;52.210;5.158;2024-03-25T02:16:17;100765.72;;;2.42;83.17
65329;BME280;51941;52.210;5.158;2024-03-25T02:18:44;100774.81;;;2.41;83.06
65329;BME280;51941;52.210;5.158;2024-03-25T02:21:10;100765.13;;;2.36;83.33
65329;BME280;51941;52.210;5.158;2024-03-25T02:23:38;100765.91;;;2.37;83.27
65329;BME280;51941;52.210;5.158;2024-03-25T02:26:07;100771.84;;;2.34;83.37
65329;BME280;51941;52.210;5.158;2024-03-25T02:28:34;100768.25;;;2.30;83.37
65329;BME280;51941;52.210;5.158;2024-03-25T02:31:00;100773.88;;;2.28;83.17
65329;BME280;51941;52.210;5.158;2024-03-25T02:33:27;100765.44;;;2.26;83.50
65329;BME280;51941;52.210;5.158;2024-03-25T02:35:52;100768.09;;;2.26;83.53
65329;BME280;51941;52.210;5.158;2024-03-25T02:38:19;100762.47;;;2.28;83.83
65329;BME280;51941;52.210;5.158;2024-03-25T02:40:45;100757.63;;;2.30;83.86
65329;BME280;51941;52.210;5.158;2024-03-25T02:43:14;100758.09;;;2.32;83.41
65329;BME280;51941;52.210;5.158;2024-03-25T02:45:40;100755.88;;;2.34;83.35
65329;BME280;51941;52.210;5.158;2024-03-25T02:48:07;100760.91;;;2.35;82.79
65329;BME280;51941;52.210;5.158;2024-03-25T02:50:33;100762.00;;;2.34;82.65
65329;BME280;51941;52.210;5.158;2024-03-25T02:53:00;100758.84;;;2.32;82.85
65329;BME280;51941;52.210;5.158;2024-03-25T02:55:25;100745.91;;;2.31;83.14
65329;BME280;51941;52.210;5.158;2024-03-25T02:57:52;100753.88;;;2.31;82.86
65329;BME280;51941;52.210;5.158;2024-03-25T03:00:19;100753.72;;;2.27;83.30
65329;BME280;51941;52.210;5.158;2024-03-25T03:02:46;100752.16;;;2.26;83.51
65329;BME280;51941;52.210;5.158;2024-03-25T03:05:12;100745.28;;;2.25;83.54
65329;BME280;51941;52.210;5.158;2024-03-25T03:07:39;100735.44;;;2.26;83.28
65329;BME280;51941;52.210;5.158;2024-03-25T03:10:05;100749.66;;;2.21;83.24
65329;BME280;51941;52.210;5.158;2024-03-25T03:12:32;100730.59;;;2.19;83.23
65329;BME280;51941;52.210;5.158;2024-03-25T03:14:58;100732.81;;;2.17;83.19
65329;BME280;51941;52.210;5.158;2024-03-25T03:17:26;100731.53;;;2.14;83.22
65329;BME280;51941;52.210;5.158;2024-03-25T03:19:52;100737.50;;;2.11;83.35
65329;BME280;51941;52.210;5.158;2024-03-25T03:22:18;100732.47;;;2.10;83.29
65329;BME280;51941;52.210;5.158;2024-03-25T03:24:44;100734.69;;;2.08;83.43
65329;BME280;51941;52.210;5.158;2024-03-25T03:27:11;100734.22;;;2.06;83.02
65329;BME280;51941;52.210;5.158;2024-03-25T03:29:37;100735.63;;;2.03;82.72
65329;BME280;51941;52.210;5.158;2024-03-25T03:32:04;100728.28;;;2.00;83.24
65329;BME280;51941;52.210;5.158;2024-03-25T03:34:31;100732.03;;;1.99;83.62
65329;BME280;51941;52.210;5.158;2024-03-25T03:36:58;100729.38;;;1.99;83.68
65329;BME280;51941;52.210;5.158;2024-03-25T03:39:24;100730.16;;;2.00;83.45
65329;BME280;51941;52.210;5.158;2024-03-25T03:41:50;100729.38;;;1.99;83.62
65329;BME280;51941;52.210;5.158;2024-03-25T03:44:16;100730.31;;;1.94;83.52
65329;BME280;51941;52.210;5.158;2024-03-25T03:46:43;100722.03;;;1.87;83.79
65329;BME280;51941;52.210;5.158;2024-03-25T03:49:09;100726.88;;;1.85;83.71
65329;BME280;51941;52.210;5.158;2024-03-25T03:51:37;100716.56;;;1.84;83.39
65329;BME280;51941;52.210;5.158;2024-03-25T03:54:03;100719.69;;;1.77;83.14
65329;BME280;51941;52.210;5.158;2024-03-25T03:56:29;100717.03;;;1.68;82.99
65329;BME280;51941;52.210;5.158;2024-03-25T03:58:55;100717.19;;;1.63;83.34
65329;BME280;51941;52.210;5.158;2024-03-25T04:01:22;100711.25;;;1.57;83.73
65329;BME280;51941;52.210;5.158;2024-03-25T04:03:48;100714.84;;;1.53;84.00
65329;BME280;51941;52.210;5.158;2024-03-25T04:06:15;100708.28;;;1.50;84.15
65329;BME280;51941;52.210;5.158;2024-03-25T04:08:42;100715.94;;;1.52;84.18
65329;BME280;51941;52.210;5.158;2024-03-25T04:11:09;100716.25;;;1.50;84.31
65329;BME280;51941;52.210;5.158;2024-03-25T04:13:35;100713.91;;;1.49;84.21
65329;BME280;51941;52.210;5.158;2024-03-25T04:16:04;100720.28;;;1.48;84.05
65329;BME280;51941;52.210;5.158;2024-03-25T04:18:31;100723.28;;;1.46;83.98
65329;BME280;51941;52.210;5.158;2024-03-25T04:20:58;100722.00;;;1.44;84.09
65329;BME280;51941;52.210;5.158;2024-03-25T04:23:24;100716.56;;;1.40;84.34
65329;BME280;51941;52.210;5.158;2024-03-25T04:25:52;100716.84;;;1.38;84.23
65329;BME280;51941;52.210;5.158;2024-03-25T04:28:19;100717.47;;;1.35;84.18
65329;BME280;51941;52.210;5.158;2024-03-25T04:30:50;100727.59;;;1.33;83.85
65329;BME280;51941;52.210;5.158;2024-03-25T04:33:16;100723.72;;;1.31;83.92
65329;BME280;51941;52.210;5.158;2024-03-25T04:35:45;100717.16;;;1.28;83.70
65329;BME280;51941;52.210;5.158;2024-03-25T04:38:10;100724.63;;;1.26;83.79
65329;BME280;51941;52.210;5.158;2024-03-25T04:40:39;100720.56;;;1.20;83.84
65329;BME280;51941;52.210;5.158;2024-03-25T04:43:06;100729.91;;;1.17;83.98
65329;BME280;51941;52.210;5.158;2024-03-25T04:45:32;100726.31;;;1.13;84.38
65329;BME280;51941;52.210;5.158;2024-03-25T04:47:58;100727.09;;;1.14;84.41
65329;BME280;51941;52.210;5.158;2024-03-25T04:50:25;100718.06;;;1.15;84.71
65329;BME280;51941;52.210;5.158;2024-03-25T04:52:51;100727.88;;;1.14;84.65
65329;BME280;51941;52.210;5.158;2024-03-25T04:55:17;100724.13;;;1.15;84.47
65329;BME280;51941;52.210;5.158;2024-03-25T04:57:43;100716.19;;;1.15;84.79
65329;BME280;51941;52.210;5.158;2024-03-25T05:00:13;100718.06;;;1.15;84.77
65329;BME280;51941;52.210;5.158;2024-03-25T05:02:39;100724.13;;;1.15;84.73
65329;BME280;51941;52.210;5.158;2024-03-25T05:05:05;100729.75;;;1.14;84.96
65329;BME280;51941;52.210;5.158;2024-03-25T05:07:32;100736.81;;;1.18;84.61
65329;BME280;51941;52.210;5.158;2024-03-25T05:09:57;100724.78;;;1.21;84.52
65329;BME280;51941;52.210;5.158;2024-03-25T05:12:23;100734.16;;;1.27;84.29
65329;BME280;51941;52.210;5.158;2024-03-25T05:14:49;100734.31;;;1.31;84.50
65329;BME280;51941;52.210;5.158;2024-03-25T05:17:17;100734.16;;;1.36;84.68
65329;BME280;51941;52.210;5.158;2024-03-25T05:19:42;100730.28;;;1.42;84.66
65329;BME280;51941;52.210;5.158;2024-03-25T05:22:08;100739.34;;;1.50;84.65
65329;BME280;51941;52.210;5.158;2024-03-25T05:24:34;100744.19;;;1.56;84.93
65329;BME280;51941;52.210;5.158;2024-03-25T05:27:00;100747.50;;;1.62;84.83
65329;BME280;51941;52.210;5.158;2024-03-25T05:29:27;100754.97;;;1.69;85.09
65329;BME280;51941;52.210;5.158;2024-03-25T05:31:57;100750.00;;;1.76;85.13
65329;BME280;51941;52.210;5.158;2024-03-25T05:34:26;100742.03;;;1.85;84.81
65329;BME280;51941;52.210;5.158;2024-03-25T05:36:53;100747.19;;;1.90;84.71
65329;BME280;51941;52.210;5.158;2024-03-25T05:39:19;100745.94;;;1.96;84.60
65329;BME280;51941;52.210;5.158;2024-03-25T05:41:46;100747.34;;;2.02;84.46
65329;BME280;51941;52.210;5.158;2024-03-25T05:44:12;100745.91;;;2.05;84.44
65329;BME280;51941;52.210;5.158;2024-03-25T05:46:38;100743.72;;;2.07;84.08
65329;BME280;51941;52.210;5.158;2024-03-25T05:49:04;100742.50;;;2.13;84.16
65329;BME280;51941;52.210;5.158;2024-03-25T05:51:32;100741.38;;;2.14;83.70
65329;BME280;51941;52.210;5.158;2024-03-25T05:54:00;100740.63;;;2.13;83.70
65329;BME280;51941;52.210;5.158;2024-03-25T05:56:26;100740.31;;;2.15;83.74
65329;BME280;51941;52.210;5.158;2024-03-25T05:58:52;100739.66;;;2.18;83.74
65329;BME280;51941;52.210;5.158;2024-03-25T06:01:18;100740.91;;;2.21;83.49
65329;BME280;51941;52.210;5.158;2024-03-25T06:03:44;100736.19;;;2.26;83.57
65329;BME280;51941;52.210;5.158;2024-03-25T06:06:11;100734.81;;;2.29;83.64
65329;BME280;51941;52.210;5.158;2024-03-25T06:08:39;100736.81;;;2.32;83.50
65329;BME280;51941;52.210;5.158;2024-03-25T06:11:04;100734.63;;;2.34;83.07
65329;BME280;51941;52.210;5.158;2024-03-25T06:13:30;100738.56;;;2.36;82.92
65329;BME280;51941;52.210;5.158;2024-03-25T06:15:56;100728.03;;;2.40;82.78
65329;BME280;51941;52.210;5.158;2024-03-25T06:18:22;100732.28;;;2.41;82.64
65329;BME280;51941;52.210;5.158;2024-03-25T06:20:48;100730.69;;;2.40;82.71
65329;BME280;51941;52.210;5.158;2024-03-25T06:23:22;100730.09;;;2.43;82.70
65329;BME280;51941;52.210;5.158;2024-03-25T06:25:50;100732.72;;;2.52;82.87
65329;BME280;51941;52.210;5.158;2024-03-25T06:28:16;100731.22;;;2.81;82.02
65329;BME280;51941;52.210;5.158;2024-03-25T06:30:42;100727.94;;;3.13;81.06
65329;BME280;51941;52.210;5.158;2024-03-25T06:33:26;100725.19;;;3.31;79.89
65329;BME280;51941;52.210;5.158;2024-03-25T06:36:11;100729.47;;;3.44;79.92
65329;BME280;51941;52.210;5.158;2024-03-25T06:38:37;100722.72;;;3.89;79.03
65329;BME280;51941;52.210;5.158;2024-03-25T06:41:04;100710.69;;;4.74;76.62
65329;BME280;51941;52.210;5.158;2024-03-25T06:43:30;100713.69;;;5.74;73.28
65329;BME280;51941;52.210;5.158;2024-03-25T06:45:56;100714.47;;;6.79;69.67
65329;BME280;51941;52.210;5.158;2024-03-25T06:48:22;100719.97;;;7.73;67.10
65329;BME280;51941;52.210;5.158;2024-03-25T06:50:54;100710.19;;;8.46;63.42
65329;BME280;51941;52.210;5.158;2024-03-25T06:53:20;100711.97;;;9.11;61.17
65329;BME280;51941;52.210;5.158;2024-03-25T06:55:54;100711.31;;;9.79;60.17
65329;BME280;51941;52.210;5.158;2024-03-25T06:58:22;100709.91;;;10.33;58.70
65329;BME280;51941;52.210;5.158;2024-03-25T07:00:49;100701.13;;;10.88;56.23
65329;BME280;51941;52.210;5.158;2024-03-25T07:03:15;100705.28;;;11.37;54.75
65329;BME280;51941;52.210;5.158;2024-03-25T07:05:41;100701.94;;;11.73;53.63
65329;BME280;51941;52.210;5.158;2024-03-25T07:08:09;100695.06;;;12.00;52.86
65329;BME280;51941;52.210;5.158;2024-03-25T07:10:36;100698.66;;;12.44;53.92
65329;BME280;51941;52.210;5.158;2024-03-25T07:13:01;100700.19;;;12.77;50.69
65329;BME280;51941;52.210;5.158;2024-03-25T07:15:29;100705.16;;;13.11;50.99
65329;BME280;51941;52.210;5.158;2024-03-25T07:17:55;100709.78;;;13.03;50.33
65329;BME280;51941;52.210;5.158;2024-03-25T07:20:21;100711.69;;;13.17;50.15
65329;BME280;51941;52.210;5.158;2024-03-25T07:22:47;100713.59;;;13.20;50.14
65329;BME280;51941;52.210;5.158;2024-03-25T07:25:12;100720.94;;;13.20;49.54
65329;BME280;51941;52.210;5.158;2024-03-25T07:27:38;100718.19;;;13.38;50.41
65329;BME280;51941;52.210;5.158;2024-03-25T07:30:05;100716.56;;;13.65;48.79
65329;BME280;51941;52.210;5.158;2024-03-25T07:32:33;100712.97;;;13.90;49.62
65329;BME280;51941;52.210;5.158;2024-03-25T07:35:00;100709.63;;;14.31;47.31
65329;BME280;51941;52.210;5.158;2024-03-25T07:37:25;100720.75;;;14.44;46.97
65329;BME280;51941;52.210;5.158;2024-03-25T07:39:51;100717.13;;;14.61;47.41
65329;BME280;51941;52.210;5.158;2024-03-25T07:42:18;100721.09;;;14.50;47.94
65329;BME280;51941;52.210;5.158;2024-03-25T07:44:44;100720.34;;;14.45;47.33
65329;BME280;51941;52.210;5.158;2024-03-25T07:47:09;100716.25;;;14.72;46.80
65329;BME280;51941;52.210;5.158;2024-03-25T07:49:37;100725.34;;;14.54;47.19
65329;BME280;51941;52.210;5.158;2024-03-25T07:52:03;100724.66;;;14.39;47.83
65329;BME280;51941;52.210;5.158;2024-03-25T07:54:29;100718.19;;;14.78;47.84
65329;BME280;51941;52.210;5.158;2024-03-25T07:56:55;100718.75;;;14.97;47.12
65329;BME280;51941;52.210;5.158;2024-03-25T07:59:21;100727.16;;;15.13;46.99
65329;BME280;51941;52.210;5.158;2024-03-25T08:01:47;100721.06;;;15.36;46.42
65329;BME280;51941;52.210;5.158;2024-03-25T08:04:13;100717.09;;;15.75;46.38
65329;BME280;51941;52.210;5.158;2024-03-25T08:06:40;100725.97;;;15.79;45.38
65329;BME280;51941;52.210;5.158;2024-03-25T08:09:06;100718.75;;;16.00;46.86
65329;BME280;51941;52.210;5.158;2024-03-25T08:11:32;100722.31;;;16.20;45.20
65329;BME280;51941;52.210;5.158;2024-03-25T08:13:58;100730.75;;;16.02;45.39
65329;BME280;51941;52.210;5.158;2024-03-25T08:16:24;100733.34;;;15.48;46.02
65329;BME280;51941;52.210;5.158;2024-03-25T08:18:50;100730.88;;;15.61;47.49
65329;BME280;51941;52.210;5.158;2024-03-25T08:21:16;100737.19;;;15.85;46.74
65329;BME280;51941;52.210;5.158;2024-03-25T08:23:45;100738.50;;;14.97;47.46
65329;BME280;51941;52.210;5.158;2024-03-25T08:26:11;100744.25;;;13.98;49.58
65329;BME280;51941;52.210;5.158;2024-03-25T08:28:38;100744.16;;;13.14;52.99
65329;BME280;51941;52.210;5.158;2024-03-25T08:31:05;100740.72;;;12.77;54.39
65329;BME280;51941;52.210;5.158;2024-03-25T08:33:31;100738.69;;;12.10;55.44
65329;BME280;51941;52.210;5.158;2024-03-25T08:35:57;100737.38;;;11.60;56.18
65329;BME280;51941;52.210;5.158;2024-03-25T08:38:23;100737.31;;;11.46;56.82
65329;BME280;51941;52.210;5.158;2024-03-25T08:40:50;100734.88;;;11.23;56.72
65329;BME280;51941;52.210;5.158;2024-03-25T08:43:16;100728.53;;;10.97;58.19
65329;BME280;51941;52.210;5.158;2024-03-25T08:45:42;100731.84;;;10.80;58.66
65329;BME280;51941;52.210;5.158;2024-03-25T08:48:09;100729.00;;;10.17;58.34
65329;BME280;51941;52.210;5.158;2024-03-25T08:50:35;100724.41;;;10.21;59.05
65329;BME280;51941;52.210;5.158;2024-03-25T08:53:01;100739.69;;;10.10;59.87
65329;BME280;51941;52.210;5.158;2024-03-25T08:55:28;100736.88;;;9.99;60.27
65329;BME280;51941;52.210;5.158;2024-03-25T08:57:56;100731.94;;;10.05;59.30
65329;BME280;51941;52.210;5.158;2024-03-25T09:00:23;100738.09;;;10.02;59.33
65329;BME280;51941;52.210;5.158;2024-03-25T09:02:48;100724.63;;;10.02;59.29
65329;BME280;51941;52.210;5.158;2024-03-25T09:05:14;100721.72;;;10.18;58.75
65329;BME280;51941;52.210;5.158;2024-03-25T09:07:40;100720.88;;;10.10;59.15
65329;BME280;51941;52.210;5.158;2024-03-25T09:10:06;100721.75;;;10.25;60.19
65329;BME280;51941;52.210;5.158;2024-03-25T09:12:50;100716.53;;;10.39;60.58
65329;BME280;51941;52.210;5.158;2024-03-25T09:15:18;100711.50;;;10.38;59.44
65329;BME280;51941;52.210;5.158;2024-03-25T09:17:44;100706.06;;;10.30;60.10
65329;BME280;51941;52.210;5.158;2024-03-25T09:20:10;100707.47;;;10.17;60.10
65329;BME280;51941;52.210;5.158;2024-03-25T09:22:36;100706.38;;;10.22;60.07
65329;BME280;51941;52.210;5.158;2024-03-25T09:25:02;100714.88;;;10.27;59.66
65329;BME280;51941;52.210;5.158;2024-03-25T09:27:28;100711.72;;;10.18;60.74
65329;BME280;51941;52.210;5.158;2024-03-25T09:29:54;100705.56;;;10.21;60.82
65329;BME280;51941;52.210;5.158;2024-03-25T09:32:21;100702.84;;;10.14;60.38
65329;BME280;51941;52.210;5.158;2024-03-25T09:34:48;100696.38;;;10.22;61.27
65329;BME280;51941;52.210;5.158;2024-03-25T09:37:14;100701.13;;;10.40;60.23
65329;BME280;51941;52.210;5.158;2024-03-25T09:39:40;100691.91;;;10.37;59.71
65329;BME280;51941;52.210;5.158;2024-03-25T09:42:08;100698.06;;;10.38;60.62
65329;BME280;51941;52.210;5.158;2024-03-25T09:44:34;100694.97;;;10.36;60.39
65329;BME280;51941;52.210;5.158;2024-03-25T09:47:00;100692.63;;;10.34;58.92
65329;BME280;51941;52.210;5.158;2024-03-25T09:49:28;100692.94;;;10.25;60.10
65329;BME280;51941;52.210;5.158;2024-03-25T09:51:55;100691.38;;;10.24;60.35
65329;BME280;51941;52.210;5.158;2024-03-25T09:54:21;100685.84;;;10.51;59.84
65329;BME280;51941;52.210;5.158;2024-03-25T09:56:49;100683.72;;;10.75;59.48
65329;BME280;51941;52.210;5.158;2024-03-25T09:59:17;100683.84;;;10.89;58.79
65329;BME280;51941;52.210;5.158;2024-03-25T10:01:43;100676.16;;;10.91;58.00
65329;BME280;51941;52.210;5.158;2024-03-25T10:04:09;100675.84;;;11.03;58.16
65329;BME280;51941;52.210;5.158;2024-03-25T10:06:39;100680.06;;;11.01;57.88
65329;BME280;51941;52.210;5.158;2024-03-25T10:09:05;100666.63;;;11.08;58.29
65329;BME280;51941;52.210;5.158;2024-03-25T10:11:31;100668.53;;;11.07;57.49
65329;BME280;51941;52.210;5.158;2024-03-25T10:13:57;100661.16;;;10.97;56.74
65329;BME280;51941;52.210;5.158;2024-03-25T10:16:24;100654.31;;;11.11;57.62
65329;BME280;51941;52.210;5.158;2024-03-25T10:18:50;100659.69;;;11.07;56.42
65329;BME280;51941;52.210;5.158;2024-03-25T10:21:20;100651.22;;;11.05;56.38
65329;BME280;51941;52.210;5.158;2024-03-25T10:23:47;100651.63;;;11.11;56.47
65329;BME280;51941;52.210;5.158;2024-03-25T10:26:26;100655.47;;;11.09;56.09
65329;BME280;51941;52.210;5.158;2024-03-25T10:29:01;100647.72;;;11.01;54.97
65329;BME280;51941;52.210;5.158;2024-03-25T10:31:27;100648.56;;;11.12;56.61
65329;BME280;51941;52.210;5.158;2024-03-25T10:33:57;100646.72;;;11.34;55.81
65329;BME280;51941;52.210;5.158;2024-03-25T10:36:24;100642.84;;;11.24;56.14
65329;BME280;51941;52.210;5.158;2024-03-25T10:38:54;100635.09;;;11.12;54.79
65329;BME280;51941;52.210;5.158;2024-03-25T10:41:21;100631.03;;;11.61;54.73
65329;BME280;51941;52.210;5.158;2024-03-25T10:43:49;100628.34;;;11.76;55.01
65329;BME280;51941;52.210;5.158;2024-03-25T10:46:18;100630.28;;;11.86;53.88
65329;BME280;51941;52.210;5.158;2024-03-25T10:48:51;100618.34;;;11.94;53.96
65329;BME280;51941;52.210;5.158;2024-03-25T10:51:20;100631.84;;;11.91;53.67
65329;BME280;51941;52.210;5.158;2024-03-25T10:53:47;100623.75;;;11.91;53.11
65329;BME280;51941;52.210;5.158;2024-03-25T10:56:16;100616.41;;;11.98;52.18
65329;BME280;51941;52.210;5.158;2024-03-25T10:58:43;100616.81;;;12.07;52.70
65329;BME280;51941;52.210;5.158;2024-03-25T11:01:10;100612.56;;;11.99;52.90
65329;BME280;51941;52.210;5.158;2024-03-25T11:03:36;100609.47;;;12.12;53.76
65329;BME280;51941;52.210;5.158;2024-03-25T11:06:03;100612.22;;;12.26;53.98
65329;BME280;51941;52.210;5.158;2024-03-25T11:08:30;100604.84;;;12.19;51.91
65329;BME280;51941;52.210;5.158;2024-03-25T11:10:57;100608.72;;;12.15;52.87
65329;BME280;51941;52.210;5.158;2024-03-25T11:13:26;100614.53;;;12.31;53.36
65329;BME280;51941;52.210;5.158;2024-03-25T11:15:52;100608.38;;;12.38;52.51
65329;BME280;51941;52.210;5.158;2024-03-25T11:18:22;100603.72;;;12.42;51.76
65329;BME280;51941;52.210;5.158;2024-03-25T11:20:59;100602.53;;;12.57;52.37
65329;BME280;51941;52.210;5.158;2024-03-25T11:23:25;100589.41;;;12.59;51.87
65329;BME280;51941;52.210;5.158;2024-03-25T11:25:55;100582.84;;;12.60;51.03
65329;BME280;51941;52.210;5.158;2024-03-25T11:28:28;100587.84;;;12.69;51.23
65329;BME280;51941;52.210;5.158;2024-03-25T11:30:55;100591.66;;;12.82;50.45
65329;BME280;51941;52.210;5.158;2024-03-25T11:33:21;100583.56;;;12.82;50.82
65329;BME280;51941;52.210;5.158;2024-03-25T11:35:48;100586.31;;;12.68;48.47
65329;BME280;51941;52.210;5.158;2024-03-25T11:38:15;100577.44;;;12.60;43.79
65329;BME280;51941;52.210;5.158;2024-03-25T11:40:43;100565.53;;;12.18;42.59
65329;BME280;51941;52.210;5.158;2024-03-25T11:43:10;100569.38;;;12.17;44.74
65329;BME280;51941;52.210;5.158;2024-03-25T11:45:46;100565.88;;;12.27;46.30
65329;BME280;51941;52.210;5.158;2024-03-25T11:48:14;100560.50;;;12.13;46.32
65329;BME280;51941;52.210;5.158;2024-03-25T11:50:40;100551.25;;;12.36;47.34
65329;BME280;51941;52.210;5.158;2024-03-25T11:53:05;100554.72;;;11.72;46.10
65329;BME280;51941;52.210;5.158;2024-03-25T11:55:32;100540.84;;;11.70;44.80
65329;BME280;51941;52.210;5.158;2024-03-25T11:57:58;100543.16;;;11.67;46.31
65329;BME280;51941;52.210;5.158;2024-03-25T12:00:24;100545.06;;;11.88;47.23
65329;BME280;51941;52.210;5.158;2024-03-25T12:02:51;100543.16;;;11.78;47.52
65329;BME280;51941;52.210;5.158;2024-03-25T12:05:18;100540.06;;;11.80;48.36
65329;BME280;51941;52.210;5.158;2024-03-25T12:07:44;100529.66;;;11.67;48.60
65329;BME280;51941;52.210;5.158;2024-03-25T12:10:10;100535.06;;;11.75;49.02
65329;BME280;51941;52.210;5.158;2024-03-25T12:12:55;100523.50;;;12.06;47.72
65329;BME280;51941;52.210;5.158;2024-03-25T12:15:21;100525.44;;;11.99;47.71
65329;BME280;51941;52.210;5.158;2024-03-25T12:17:47;100508.44;;;11.98;48.11
65329;BME280;51941;52.210;5.158;2024-03-25T12:20:14;100502.63;;;12.18;48.69
65329;BME280;51941;52.210;5.158;2024-03-25T12:22:41;100500.34;;;12.38;48.01
65329;BME280;51941;52.210;5.158;2024-03-25T12:25:08;100501.81;;;12.53;47.58
65329;BME280;51941;52.210;5.158;2024-03-25T12:27:35;100503.75;;;12.56;46.97
65329;BME280;51941;52.210;5.158;2024-03-25T12:30:02;100504.50;;;12.60;45.92
65329;BME280;51941;52.210;5.158;2024-03-25T12:32:36;100509.91;;;12.53;45.37
65329;BME280;51941;52.210;5.158;2024-03-25T12:35:03;100505.25;;;12.68;45.34
65329;BME280;51941;52.210;5.158;2024-03-25T12:37:34;100499.38;;;12.88;45.28
65329;BME280;51941;52.210;5.158;2024-03-25T12:40:00;100501.56;;;13.11;46.32
65329;BME280;51941;52.210;5.158;2024-03-25T12:42:26;100491.81;;;13.24;45.61
65329;BME280;51941;52.210;5.158;2024-03-25T12:44:53;100490.88;;;13.49;43.58
65329;BME280;51941;52.210;5.158;2024-03-25T12:47:18;100484.25;;;13.64;44.24
65329;BME280;51941;52.210;5.158;2024-03-25T12:49:45;100469.88;;;13.67;41.42
65329;BME280;51941;52.210;5.158;2024-03-25T12:52:11;100480.72;;;13.67;43.87
65329;BME280;51941;52.210;5.158;2024-03-25T12:54:38;100471.81;;;13.70;43.32